Time;durP1;ratioP1;P1;durP2;ratioP2;P2;SDS_P1;SDS_P2;PMS_P1;PMS_P2;Temp;Humidity;BMP_temperature;BMP_pressure;BME280_temperature;BME280_humidity;BME280_pressure;Samples;Min_cycle;Max_cycle;Signal;HPM_P1;HPM_P2
2023/05/25 05:01:46;;;;;;;;;3.00;2.00;;;;;17.20;51.13;62605.34;6314868;22;45766;-76
2023/05/25 05:04:12;;;;;;;;;2.00;2.00;;;;;17.20;51.16;62519.41;6366065;22;45398;-77
2023/05/25 05:06:38;;;;;;;;;2.00;2.00;;;;;17.19;50.98;62494.34;6365199;22;45401;-77
2023/05/25 05:09:03;;;;;;;;;3.00;2.00;;;;;17.08;50.96;62490.94;6362487;22;45267;-76
2023/05/25 05:11:28;;;;;;;;;2.33;2.33;;;;;17.14;50.93;62478.78;6362449;22;46291;-78
2023/05/25 05:13:54;;;;;;;;;3.00;3.00;;;;;17.01;51.42;62457.22;6364297;22;51377;-78
2023/05/25 05:16:21;;;;;;;;;1.00;1.00;;;;;17.15;50.77;62463.31;6337861;22;45373;-76
2023/05/25 05:18:46;;;;;;;;;2.00;2.00;;;;;17.16;51.36;62552.44;6338579;22;45362;-75
2023/05/25 05:21:12;;;;;;;;;2.33;1.33;;;;;17.03;51.27;62280.16;6336245;22;47650;-77
2023/05/25 05:23:38;;;;;;;;;3.00;1.67;;;;;17.00;50.76;62271.59;6365971;22;45603;-77
2023/05/25 05:26:06;;;;;;;;;2.33;2.33;;;;;17.03;50.98;62307.34;6367002;22;45374;-77
2023/05/25 05:28:31;;;;;;;;;2.00;1.00;;;;;17.11;51.27;62210.91;6366858;22;45479;-77
2023/05/25 05:30:57;;;;;;;;;2.67;2.00;;;;;16.72;51.21;62025.94;6362945;22;45447;-75
2023/05/25 05:33:24;;;;;;;;;2.00;2.00;;;;;16.86;51.40;61889.59;6367011;22;45591;-76
2023/05/25 05:35:51;;;;;;;;;3.00;3.00;;;;;17.10;51.58;61986.31;6367662;22;45364;-77
2023/05/25 05:38:17;;;;;;;;;3.00;3.00;;;;;16.64;51.11;62034.38;6368269;22;45314;-78
2023/05/25 05:40:42;;;;;;;;;0.00;0.00;;;;;17.22;51.24;61900.50;6367429;22;45330;-76
2023/05/25 05:43:11;;;;;;;;;2.33;2.00;;;;;16.93;51.70;61933.91;6366470;22;45341;-78
2023/05/25 05:45:36;;;;;;;;;1.67;1.67;;;;;17.03;51.47;61832.09;6365499;22;45502;-77
2023/05/25 05:48:03;;;;;;;;;2.00;2.00;;;;;17.25;51.25;61690.28;6367881;22;45412;-77
2023/05/25 05:50:28;;;;;;;;;1.33;1.33;;;;;17.26;51.63;61712.19;6367191;22;47005;-76
2023/05/25 05:52:54;;;;;;;;;3.00;1.33;;;;;17.11;50.90;61741.44;6367785;22;45424;-77
2023/05/25 05:55:19;;;;;;;;;3.67;1.67;;;;;17.28;51.28;61773.03;6366752;22;45323;-77
2023/05/25 05:57:45;;;;;;;;;2.00;2.00;;;;;17.29;51.14;61761.28;6367048;22;45536;-77
2023/05/25 06:00:11;;;;;;;;;2.33;1.00;;;;;17.31;50.88;61818.91;6368185;22;45970;-77
2023/05/25 06:02:36;;;;;;;;;2.00;2.00;;;;;17.19;51.23;61841.25;6367471;22;45421;-76
2023/05/25 06:05:02;;;;;;;;;2.67;2.00;;;;;17.14;51.30;61766.00;6363312;22;45360;-79
2023/05/25 06:07:29;;;;;;;;;1.00;1.00;;;;;17.18;51.22;61858.84;6366990;22;45302;-78
2023/05/25 06:09:55;;;;;;;;;2.33;1.33;;;;;17.35;50.75;61756.50;6366615;22;47263;-78
2023/05/25 06:12:20;;;;;;;;;4.00;2.00;;;;;17.36;50.97;61797.06;6366694;22;45357;-78
2023/05/25 06:14:48;;;;;;;;;4.00;1.00;;;;;17.13;50.84;61765.47;6367436;22;45407;-78
2023/05/25 06:17:14;;;;;;;;;5.00;5.00;;;;;17.40;50.72;61796.03;6338889;22;45468;-78
2023/05/25 06:19:41;;;;;;;;;2.67;1.67;;;;;17.42;50.89;61721.31;6366868;22;46136;-79
2023/05/25 06:22:06;;;;;;;;;2.67;2.67;;;;;17.38;51.13;61610.28;6367676;22;45362;-78
2023/05/25 06:24:31;;;;;;;;;3.00;3.00;;;;;17.46;50.83;61578.28;6367904;22;46032;-78
2023/05/25 06:26:57;;;;;;;;;3.33;2.33;;;;;17.47;50.80;61619.38;6367975;22;45363;-77
2023/05/25 06:29:22;;;;;;;;;3.00;3.00;;;;;17.34;50.69;61566.00;6367886;22;45520;-78
2023/05/25 06:31:47;;;;;;;;;2.00;2.00;;;;;17.32;51.07;61525.97;6366758;22;45272;-78
2023/05/25 06:34:13;;;;;;;;;3.00;3.00;;;;;17.44;50.83;61504.66;6367290;22;45322;-78
2023/05/25 06:36:38;;;;;;;;;1.67;1.67;;;;;17.52;51.05;61456.59;6368174;22;45381;-78
2023/05/25 06:39:03;;;;;;;;;2.00;2.00;;;;;17.37;50.44;61456.59;6367656;22;45622;-78
2023/05/25 06:41:29;;;;;;;;;2.00;1.00;;;;;17.54;50.63;61442.72;6367427;22;48451;-79
2023/05/25 06:43:55;;;;;;;;;4.00;2.33;;;;;17.41;50.94;61482.75;6367451;22;45311;-78
2023/05/25 06:46:20;;;;;;;;;3.00;3.00;;;;;17.58;50.82;61428.28;6367786;22;45302;-78
2023/05/25 06:48:46;;;;;;;;;1.33;1.33;;;;;17.60;50.72;61312.47;6367132;22;46209;-78
2023/05/25 06:51:11;;;;;;;;;1.00;1.00;;;;;17.60;50.97;61437.91;6367387;22;45425;-79
2023/05/25 06:53:38;;;;;;;;;2.00;2.00;;;;;17.59;50.65;61340.78;6368070;22;45342;-78
2023/05/25 06:56:04;;;;;;;;;2.00;2.00;;;;;17.67;50.83;61250.50;6367728;22;45405;-78
2023/05/25 06:58:29;;;;;;;;;2.00;2.00;;;;;17.43;50.89;61191.38;6367769;22;46108;-78
2023/05/25 07:00:54;;;;;;;;;2.00;2.00;;;;;17.72;50.94;61143.72;6367557;22;45396;-78
2023/05/25 07:03:26;;;;;;;;;1.00;1.00;;;;;17.66;50.73;61113.84;6366589;22;45565;-85
2023/05/25 07:05:51;;;;;;;;;1.67;1.67;;;;;17.80;50.52;61032.06;6368351;22;45833;-80
2023/05/25 07:08:16;;;;;;;;;4.00;2.00;;;;;17.83;50.44;60992.56;6367591;22;46500;-80
2023/05/25 07:10:44;;;;;;;;;2.00;2.00;;;;;17.69;50.43;61041.78;6366256;22;47950;-79
2023/05/25 07:13:10;;;;;;;;;1.33;1.33;;;;;17.89;50.56;60990.38;6366750;22;45280;-79
2023/05/25 07:15:35;;;;;;;;;3.00;1.33;;;;;17.82;50.77;60959.47;6368424;22;45705;-79
2023/05/25 07:18:01;;;;;;;;;1.00;1.00;;;;;17.91;50.78;60915.03;6367760;22;45336;-79
2023/05/25 07:20:26;;;;;;;;;3.00;3.00;;;;;17.99;50.63;60864.25;6366291;22;45308;-79
2023/05/25 07:22:52;;;;;;;;;1.00;1.00;;;;;18.01;50.60;60837.50;6366366;22;45360;-79
2023/05/25 07:25:17;;;;;;;;;2.67;1.33;;;;;17.95;50.48;60793.25;6367619;22;45330;-79
2023/05/25 07:27:47;;;;;;;;;4.00;1.00;;;;;18.08;50.07;60726.88;6366686;22;46479;-79
2023/05/25 07:30:13;;;;;;;;;2.00;2.00;;;;;18.10;50.67;60614.13;6367484;22;45389;-82
2023/05/25 07:32:39;;;;;;;;;1.00;1.00;;;;;18.12;50.45;60614.09;6367102;22;45342;-80
2023/05/25 07:35:05;;;;;;;;;1.33;1.33;;;;;17.98;50.58;60489.91;6367566;22;45460;-80
2023/05/25 07:37:31;;;;;;;;;3.00;1.67;;;;;18.01;50.18;60572.63;6364427;22;46539;-79
2023/05/25 07:39:56;;;;;;;;;2.00;2.00;;;;;18.23;50.36;60488.38;6366857;22;54100;-79
2023/05/25 07:42:21;;;;;;;;;1.00;1.00;;;;;18.13;50.24;60497.09;6367591;22;45289;-83
2023/05/25 07:44:47;;;;;;;;;1.33;1.33;;;;;18.22;49.99;60600.03;6366559;22;45294;-80
2023/05/25 07:47:15;;;;;;;;;4.67;4.00;;;;;18.16;50.08;60526.97;6366700;22;46106;-83
2023/05/25 07:49:40;;;;;;;;;5.67;3.00;;;;;18.38;49.79;60516.97;6366606;22;45484;-81
2023/05/25 07:52:06;;;;;;;;;2.00;2.00;;;;;18.42;50.20;60521.16;6363751;22;45469;-80
2023/05/25 07:54:32;;;;;;;;;1.67;0.67;;;;;18.46;49.73;60445.22;6367128;22;45535;-77
2023/05/25 07:56:57;;;;;;;;;1.00;1.00;;;;;18.37;50.15;60422.94;6366427;22;47109;-80
2023/05/25 07:59:23;;;;;;;;;3.00;1.00;;;;;18.38;50.02;60453.38;6367313;22;45438;-81
2023/05/25 08:01:48;;;;;;;;;0.67;0.67;;;;;18.49;49.78;60296.56;6337919;22;45399;-79
2023/05/25 08:04:13;;;;;;;;;1.00;1.00;;;;;18.61;50.04;60260.50;6367636;22;45431;-82
2023/05/25 08:06:39;;;;;;;;;1.00;1.00;;;;;18.56;49.47;60239.75;6366324;22;55381;-82
2023/05/25 08:09:06;;;;;;;;;1.00;1.00;;;;;18.74;49.66;60327.03;6364511;22;45373;-81
2023/05/25 08:11:32;;;;;;;;;1.00;1.00;;;;;18.79;49.53;60580.41;6366160;22;45422;-80
2023/05/25 08:14:00;;;;;;;;;0.00;0.00;;;;;18.83;49.22;60688.88;6366916;22;45398;-80
2023/05/25 08:16:25;;;;;;;;;3.00;1.67;;;;;18.83;48.61;60723.63;6365348;22;46444;-79
2023/05/25 08:18:51;;;;;;;;;1.00;1.00;;;;;18.90;48.98;60918.72;6362548;22;45408;-78
2023/05/25 08:21:16;;;;;;;;;1.67;0.67;;;;;18.94;48.62;60789.25;6365806;22;45359;-77
2023/05/25 08:23:42;;;;;;;;;1.00;1.00;;;;;18.92;48.82;60783.94;6366043;22;45387;-79
2023/05/25 08:26:09;;;;;;;;;0.67;0.67;;;;;19.04;48.98;60806.75;6364422;22;46743;-77
2023/05/25 08:28:34;;;;;;;;;2.00;0.00;;;;;18.92;48.80;60862.00;6336704;22;45321;-78
2023/05/25 08:31:00;;;;;;;;;1.00;1.00;;;;;19.05;48.25;60821.69;6338201;22;45468;-76
2023/05/25 08:33:25;;;;;;;;;1.00;1.00;;;;;19.14;48.11;60975.66;6367879;22;45601;-78
2023/05/25 08:35:51;;;;;;;;;0.00;0.00;;;;;19.15;47.80;61121.19;6366875;22;47257;-78
2023/05/25 08:38:17;;;;;;;;;1.33;1.00;;;;;19.29;48.07;61154.22;6366819;22;45343;-78
2023/05/25 08:40:43;;;;;;;;;1.00;1.00;;;;;19.35;47.82;61125.25;6367272;22;45361;-78
2023/05/25 08:43:08;;;;;;;;;1.00;1.00;;;;;19.29;47.82;61025.78;6366349;22;45619;-77
2023/05/25 08:45:34;;;;;;;;;1.00;1.00;;;;;19.48;48.23;61179.19;6363525;22;46209;-78
2023/05/25 08:48:00;;;;;;;;;0.00;0.00;;;;;19.47;47.30;61343.56;6365290;22;45445;-84
2023/05/25 08:50:27;;;;;;;;;1.00;1.00;;;;;19.59;47.27;62274.78;6365936;22;45400;-79
2023/05/25 08:52:58;;;;;;;;;0.33;0.33;;;;;19.56;47.32;61835.06;6367251;22;45498;-78
2023/05/25 08:55:28;;;;;;;;;2.33;1.67;;;;;19.65;47.26;61946.47;6366819;22;45415;-76
2023/05/25 08:58:10;;;;;;;;;1.00;1.00;;;;;19.71;46.72;61973.81;6366278;22;45369;-79
2023/05/25 09:00:46;;;;;;;;;0.67;0.67;;;;;20.02;46.23;61883.31;6364549;22;45407;-79
2023/05/25 09:03:18;;;;;;;;;0.67;0.67;;;;;20.58;45.93;61295.97;6367386;22;45891;-82
2023/05/25 09:05:45;;;;;;;;;0.33;0.33;;;;;21.12;45.55;60688.28;6364828;22;46357;-82
2023/05/25 09:08:11;;;;;;;;;0.33;0.33;;;;;21.87;45.38;59358.00;6365650;22;45555;-81
2023/05/25 09:10:37;;;;;;;;;2.67;0.00;;;;;22.48;44.82;58287.56;6366891;22;45415;-80
2023/05/25 09:13:03;;;;;;;;;0.00;0.00;;;;;23.95;43.95;57786.66;6367712;22;45542;-80
2023/05/25 09:15:30;;;;;;;;;0.67;0.67;;;;;24.91;42.56;59105.31;6366904;22;46009;-80
2023/05/25 09:17:56;;;;;;;;;0.00;0.00;;;;;25.46;42.37;58654.97;6367158;22;45479;-80
2023/05/25 09:20:23;;;;;;;;;2.00;0.67;;;;;26.03;40.96;59541.72;6367845;22;45723;-81
2023/05/25 09:22:48;;;;;;;;;0.50;0.50;;;;;27.35;40.38;61785.22;6374947;22;45311;-81
2023/05/25 09:25:20;;;;;;;;;1.00;1.00;;;;;27.71;39.59;62756.19;6376156;22;45386;-81
2023/05/25 09:27:46;;;;;;;;;0.00;0.00;;;;;28.66;38.77;64600.97;6366969;22;45416;-77
2023/05/25 09:30:11;;;;;;;;;1.00;0.00;;;;;29.16;38.26;65964.19;6366134;22;45483;-77
2023/05/25 09:32:38;;;;;;;;;0.00;0.00;;;;;29.58;37.31;67230.22;6368060;22;45369;-77
2023/05/25 09:37:43;;;;;;;;;1.25;0.75;;;;;29.92;35.66;69259.00;6359641;22;71553;-79
2023/05/25 09:40:09;;;;;;;;;1.50;1.00;;;;;30.22;35.89;70049.75;6366036;22;45397;-77
2023/05/25 09:42:36;;;;;;;;;1.00;1.00;;;;;30.40;35.95;70264.56;6367454;22;45498;-77
2023/05/25 09:45:02;;;;;;;;;1.00;1.00;;;;;30.89;35.19;70764.22;6367107;22;47300;-77
2023/05/25 09:47:28;;;;;;;;;0.00;0.00;;;;;30.94;34.98;71199.25;6366588;22;45310;-80
2023/05/25 09:49:57;;;;;;;;;2.50;1.50;;;;;31.10;34.78;71423.09;6367752;22;45394;-80
2023/05/25 09:52:30;;;;;;;;;3.00;1.00;;;;;30.88;34.13;71651.66;6367914;22;45533;-81
2023/05/25 09:54:56;;;;;;;;;1.00;1.00;;;;;31.05;33.91;71911.75;6339335;22;46815;-80
2023/05/25 09:57:21;;;;;;;;;1.00;1.00;;;;;31.10;33.94;71877.50;6366645;22;45513;-80
2023/05/25 09:59:47;;;;;;;;;0.50;0.50;;;;;30.98;33.79;71960.59;6367083;22;45292;-81
2023/05/25 10:02:13;;;;;;;;;0.00;0.00;;;;;30.83;33.91;71918.75;6367517;22;45470;-80
2023/05/25 10:04:39;;;;;;;;;0.00;0.00;;;;;30.56;34.64;71853.47;6367352;22;45375;-79
2023/05/25 10:07:05;;;;;;;;;1.75;0.75;;;;;30.28;34.71;71765.13;6367547;22;45767;-80
2023/05/25 10:09:34;;;;;;;;;0.00;0.00;;;;;30.32;34.81;71706.63;6367006;22;45374;-80
2023/05/25 10:12:01;;;;;;;;;1.00;1.00;;;;;30.04;35.48;71696.00;6366953;22;45338;-78
2023/05/25 10:14:28;;;;;;;;;0.50;0.00;;;;;29.70;35.40;71545.88;6365618;22;45533;-78
2023/05/25 10:16:56;;;;;;;;;1.00;0.00;;;;;29.92;34.32;71473.31;6367508;22;45366;-76
2023/05/25 10:19:59;;;;;;;;;0.25;0.25;;;;;29.79;35.75;71395.31;6367928;22;45457;-80
2023/05/25 10:22:28;;;;;;;;;1.00;1.00;;;;;29.70;36.46;71449.81;6365350;22;45807;-78
2023/05/25 10:25:20;;;;;;;;;0.00;0.00;;;;;29.62;35.11;71279.72;6365447;22;45422;-75
2023/05/25 10:27:56;;;;;;;;;0.75;0.75;;;;;29.55;34.67;71353.63;6366552;22;45294;-77
2023/05/25 10:30:24;;;;;;;;;1.00;1.00;;;;;29.32;34.79;71393.72;6365456;22;45454;-76
2023/05/25 10:32:50;;;;;;;;;1.75;1.00;;;;;29.21;35.28;71340.00;6366794;22;45528;-77
2023/05/25 10:35:16;;;;;;;;;1.00;1.00;;;;;29.08;36.52;71264.84;6362174;22;47638;-78
2023/05/25 10:37:45;;;;;;;;;1.25;1.25;;;;;29.60;35.91;71375.47;6365271;22;45287;-78
2023/05/25 10:40:12;;;;;;;;;0.00;0.00;;;;;29.11;36.22;71314.81;6366734;22;45368;-77
2023/05/25 10:42:40;;;;;;;;;0.50;0.50;;;;;29.64;35.97;71363.97;6368000;22;45416;-78
2023/05/25 10:45:09;;;;;;;;;1.00;1.00;;;;;29.20;35.41;71333.34;6365647;22;46151;-78
2023/05/25 10:47:44;;;;;;;;;0.75;0.00;;;;;29.43;35.81;71451.38;6366613;22;45392;-78
2023/05/25 10:50:23;;;;;;;;;1.00;1.00;;;;;29.77;35.54;71420.16;6366097;22;45417;-78
2023/05/25 10:52:58;;;;;;;;;1.50;1.00;;;;;29.84;35.14;71492.06;6365989;22;45308;-77
2023/05/25 10:55:26;;;;;;;;;1.00;1.00;;;;;29.91;35.25;71453.59;6364744;22;46186;-78
2023/05/25 10:58:07;;;;;;;;;3.00;1.00;;;;;29.91;34.09;71515.75;6366579;22;45465;-79
2023/05/25 11:00:33;;;;;;;;;0.00;0.00;;;;;29.66;35.80;71487.03;6367163;22;45765;-78
2023/05/25 11:02:58;;;;;;;;;1.00;1.00;;;;;29.92;35.88;71587.91;6366483;22;45551;-77
2023/05/25 11:05:27;;;;;;;;;2.50;1.00;;;;;29.89;35.94;71631.25;6365633;22;45390;-76
2023/05/25 11:07:57;;;;;;;;;2.25;1.00;;;;;29.66;35.85;71522.50;6366770;22;45342;-76
2023/05/25 11:10:42;;;;;;;;;1.00;1.00;;;;;29.88;36.08;71619.72;6338328;22;45428;-77
2023/05/25 11:13:33;;;;;;;;;0.50;0.50;;;;;29.78;35.77;71503.19;6367127;22;45292;-76
2023/05/25 11:16:17;;;;;;;;;2.00;2.00;;;;;29.94;36.23;71587.63;6351347;22;45886;-77
2023/05/25 11:18:47;;;;;;;;;1.00;1.00;;;;;29.97;36.31;71630.13;6366777;22;45338;-77
2023/05/25 11:21:13;;;;;;;;;1.00;1.00;;;;;30.00;36.11;71598.31;6365759;22;45272;-76
2023/05/25 11:23:51;;;;;;;;;0.50;0.50;;;;;30.02;34.99;71447.94;6366819;22;45352;-77
2023/05/25 11:26:21;;;;;;;;;1.25;1.25;;;;;29.97;34.86;71487.59;6337413;22;47671;-77
2023/05/25 11:28:46;;;;;;;;;1.00;1.00;;;;;29.86;33.92;71439.31;6366640;22;45361;-77
2023/05/25 11:31:12;;;;;;;;;1.00;1.00;;;;;29.91;35.36;71513.03;6366789;22;45568;-78
2023/05/25 11:33:38;;;;;;;;;2.00;2.00;;;;;29.86;34.77;71518.44;6367399;22;45375;-77
2023/05/25 11:36:06;;;;;;;;;2.50;1.75;;;;;29.82;34.12;71514.16;6366912;22;45974;-77
2023/05/25 11:38:32;;;;;;;;;0.50;0.50;;;;;29.79;34.49;71526.25;6366915;22;45650;-78
2023/05/25 11:40:57;;;;;;;;;2.33;1.00;;;;;29.81;34.74;71435.97;6366630;22;45378;-77
2023/05/25 11:43:25;;;;;;;;;1.25;1.25;;;;;29.81;35.04;71485.06;6367372;22;45460;-79
2023/05/25 11:46:08;;;;;;;;;1.00;1.00;;;;;29.73;34.94;71538.63;6366396;22;45533;-78
2023/05/25 11:48:33;;;;;;;;;2.75;1.00;;;;;29.69;35.09;71552.22;6366059;22;45503;-77
2023/05/25 11:51:05;;;;;;;;;2.00;2.00;;;;;29.53;35.33;71498.41;6366899;22;45399;-79
2023/05/25 11:53:31;;;;;;;;;1.00;1.00;;;;;29.54;35.54;71491.44;6366232;22;45343;-78
2023/05/25 11:55:56;;;;;;;;;2.67;1.33;;;;;29.45;35.72;71382.31;6366778;22;45489;-78
2023/05/25 11:58:22;;;;;;;;;1.00;1.00;;;;;29.20;36.22;71401.50;6366535;22;45345;-78
2023/05/25 12:00:47;;;;;;;;;0.67;0.67;;;;;29.30;36.33;71328.59;6367274;22;45402;-78
2023/05/25 12:03:29;;;;;;;;;1.00;1.00;;;;;29.13;36.32;71317.25;6368289;22;45526;-78
2023/05/25 12:05:55;;;;;;;;;0.25;0.25;;;;;29.11;36.39;71286.97;6367139;22;46027;-78
2023/05/25 12:08:41;;;;;;;;;1.33;1.33;;;;;29.00;36.16;71198.44;6366341;22;45456;-78
2023/05/25 12:11:06;;;;;;;;;1.00;1.00;;;;;28.79;36.65;71173.50;6365937;22;45410;-79
2023/05/25 12:13:32;;;;;;;;;1.00;1.00;;;;;28.81;37.16;71156.88;6368269;22;45390;-78
2023/05/25 12:15:59;;;;;;;;;0.25;0.25;;;;;28.62;36.67;71073.84;6367487;22;47389;-78
2023/05/25 12:18:27;;;;;;;;;0.00;0.00;;;;;28.65;37.21;71077.50;6367779;22;45429;-77
2023/05/25 12:20:53;;;;;;;;;1.00;1.00;;;;;28.57;37.27;71029.66;6366301;22;45308;-77
2023/05/25 12:23:19;;;;;;;;;1.00;1.00;;;;;28.48;37.36;71002.41;6367663;22;45494;-77
2023/05/25 12:25:44;;;;;;;;;1.00;1.00;;;;;28.40;37.71;70985.72;6366982;22;46020;-77
2023/05/25 12:28:14;;;;;;;;;0.50;0.50;;;;;28.33;37.97;70939.13;6367898;22;45366;-77
2023/05/25 12:30:40;;;;;;;;;0.00;0.00;;;;;28.02;37.97;70883.03;6367708;22;45400;-77
2023/05/25 12:33:05;;;;;;;;;1.00;1.00;;;;;28.21;38.00;70777.63;6367688;22;45368;-77
2023/05/25 12:35:47;;;;;;;;;2.00;0.00;;;;;28.14;38.17;70777.28;6366557;22;46210;-77
2023/05/25 12:38:15;;;;;;;;;2.00;1.00;;;;;28.07;37.44;70753.09;6367370;22;45436;-77
2023/05/25 12:40:41;;;;;;;;;2.00;1.00;;;;;27.89;37.42;70704.72;6368564;22;45346;-76
2023/05/25 12:43:06;;;;;;;;;0.00;0.00;;;;;27.92;37.90;70756.72;6368760;22;45335;-76
2023/05/25 12:45:32;;;;;;;;;1.75;1.75;;;;;27.84;38.39;70673.59;6368926;22;46469;-76
2023/05/25 12:47:57;;;;;;;;;1.00;1.00;;;;;27.72;38.85;70648.78;6368293;22;45486;-76
2023/05/25 12:50:22;;;;;;;;;2.33;2.33;;;;;27.51;38.24;70583.84;6366645;22;45333;-76
2023/05/25 12:52:48;;;;;;;;;2.00;2.00;;;;;27.56;38.43;70581.72;6368787;22;45399;-76
2023/05/25 12:55:27;;;;;;;;;2.00;2.00;;;;;27.50;38.61;70573.88;6368679;22;45779;-77
2023/05/25 12:58:05;;;;;;;;;1.67;1.00;;;;;27.42;38.50;70496.25;6368157;22;45324;-76
2023/05/25 13:00:36;;;;;;;;;2.00;1.00;;;;;27.36;38.35;70476.66;6368112;22;45324;-77
2023/05/25 13:03:02;;;;;;;;;1.33;1.33;;;;;27.23;38.58;70528.25;6368746;22;45381;-77
2023/05/25 13:05:31;;;;;;;;;1.00;1.00;;;;;27.08;38.40;70511.31;6367812;22;46214;-77
2023/05/25 13:07:57;;;;;;;;;2.00;2.00;;;;;27.14;38.81;70477.84;6367933;22;45310;-77
2023/05/25 13:10:23;;;;;;;;;2.67;2.00;;;;;26.98;38.94;70468.78;6368210;22;45401;-77
2023/05/25 13:12:50;;;;;;;;;1.00;1.00;;;;;27.06;38.79;70334.50;6369199;22;45392;-77
2023/05/25 13:15:19;;;;;;;;;3.00;1.00;;;;;26.88;39.46;70264.59;6368101;22;46215;-76
2023/05/25 13:17:45;;;;;;;;;1.00;1.00;;;;;26.86;39.46;70256.75;6368174;22;45812;-76
2023/05/25 13:20:12;;;;;;;;;1.33;1.33;;;;;26.89;39.67;70181.63;6367652;22;45387;-77
2023/05/25 13:22:37;;;;;;;;;3.00;3.00;;;;;26.81;39.64;70161.75;6369028;22;45453;-76
2023/05/25 13:25:03;;;;;;;;;5.00;3.33;;;;;26.78;40.08;70114.69;6363161;22;48560;-77
2023/05/25 13:27:28;;;;;;;;;3.00;3.00;;;;;26.70;40.00;70080.69;6367150;22;45349;-77
2023/05/25 13:29:54;;;;;;;;;2.00;2.00;;;;;26.59;39.67;70124.44;6367009;22;45282;-76
2023/05/25 13:32:19;;;;;;;;;2.00;2.00;;;;;26.39;39.53;70093.44;6367367;22;45411;-75
2023/05/25 13:34:45;;;;;;;;;3.33;2.33;;;;;26.41;39.78;70114.84;6338474;22;46930;-74
2023/05/25 13:37:10;;;;;;;;;4.00;3.67;;;;;26.32;39.40;70066.66;6367473;22;45492;-76
2023/05/25 13:39:36;;;;;;;;;3.00;3.00;;;;;26.13;39.53;70002.53;6367045;22;46560;-76
2023/05/25 13:42:01;;;;;;;;;6.33;6.33;;;;;26.17;40.05;69940.16;6367644;22;45363;-76
2023/05/25 13:44:26;;;;;;;;;5.67;5.67;;;;;26.02;39.96;69974.28;6367642;22;46104;-75
2023/05/25 13:46:52;;;;;;;;;4.67;3.00;;;;;26.03;39.56;69991.13;6338312;22;47240;-74
2023/05/25 13:49:18;;;;;;;;;1.33;1.33;;;;;25.98;38.95;70039.34;6366473;22;45347;-76
2023/05/25 13:51:43;;;;;;;;;4.00;4.00;;;;;25.95;39.33;70084.53;6368448;22;45816;-76
2023/05/25 13:54:11;;;;;;;;;5.00;3.33;;;;;25.84;39.37;69931.56;6367469;22;45893;-77
2023/05/25 13:56:37;;;;;;;;;5.33;4.33;;;;;25.77;39.47;70003.88;6367532;22;45350;-76
2023/05/25 13:59:02;;;;;;;;;3.00;1.33;;;;;25.69;39.17;70009.00;6368036;22;45420;-77
2023/05/25 14:01:27;;;;;;;;;2.67;2.33;;;;;25.79;39.75;70004.16;6339635;22;45482;-76
2023/05/25 14:03:54;;;;;;;;;2.33;2.33;;;;;25.76;39.73;69932.22;6366669;22;46211;-76
2023/05/25 14:06:19;;;;;;;;;3.33;3.33;;;;;25.69;40.29;69843.16;6367168;22;45390;-76
2023/05/25 14:08:45;;;;;;;;;5.00;5.00;;;;;25.66;39.80;69891.00;6367569;22;45310;-76
2023/05/25 14:11:10;;;;;;;;;4.00;4.00;;;;;25.62;40.20;69897.66;6368475;22;45314;-75
2023/05/25 14:13:36;;;;;;;;;4.00;4.00;;;;;25.51;39.56;69827.59;6366902;22;45338;-77
2023/05/25 14:16:02;;;;;;;;;3.00;3.00;;;;;25.55;40.15;69880.53;6366979;22;45504;-77
2023/05/25 14:18:27;;;;;;;;;1.67;1.67;;;;;25.56;40.14;69871.50;6367149;22;45572;-77
2023/05/25 14:20:53;;;;;;;;;3.00;3.00;;;;;25.56;40.92;69851.94;6366768;22;45360;-78
2023/05/25 14:23:18;;;;;;;;;1.33;1.00;;;;;25.34;40.81;69721.19;6365732;22;46329;-75
2023/05/25 14:25:45;;;;;;;;;3.00;3.00;;;;;25.43;40.91;69742.78;6367068;22;45372;-77
2023/05/25 14:28:10;;;;;;;;;2.00;2.00;;;;;25.36;41.15;69647.16;6339248;22;45380;-75
2023/05/25 14:30:35;;;;;;;;;3.00;1.00;;;;;25.42;41.57;69629.94;6367697;22;45671;-77
2023/05/25 14:33:01;;;;;;;;;3.00;3.00;;;;;25.40;41.30;69521.94;6367068;22;47002;-76
2023/05/25 14:35:26;;;;;;;;;2.67;2.67;;;;;25.41;41.52;69415.44;6367856;22;45350;-76
2023/05/25 14:37:51;;;;;;;;;1.00;1.00;;;;;25.42;41.80;69364.59;6367124;22;45509;-76
2023/05/25 14:40:17;;;;;;;;;4.00;3.67;;;;;25.39;42.30;69288.50;6368107;22;45459;-75
2023/05/25 14:42:42;;;;;;;;;3.67;3.67;;;;;25.15;42.11;69293.00;6367162;22;47060;-76
2023/05/25 14:45:08;;;;;;;;;3.00;3.00;;;;;25.33;42.04;69348.44;6367330;22;45365;-76
2023/05/25 14:47:33;;;;;;;;;4.33;3.33;;;;;25.24;41.94;69325.41;6367358;22;45322;-77
2023/05/25 14:49:58;;;;;;;;;1.00;1.00;;;;;25.27;41.79;69279.66;6367852;22;45367;-75
2023/05/25 14:52:24;;;;;;;;;3.00;2.00;;;;;25.25;41.96;69271.84;6365001;22;45804;-77
2023/05/25 14:54:49;;;;;;;;;2.33;2.33;;;;;25.15;42.17;69293.00;6365105;22;45289;-76
2023/05/25 14:57:15;;;;;;;;;2.67;2.67;;;;;25.13;41.58;69244.03;6365976;22;45299;-78
2023/05/25 14:59:40;;;;;;;;;2.00;2.00;;;;;25.17;42.39;69295.41;6366763;22;45393;-78
2023/05/25 15:02:06;;;;;;;;;2.33;2.33;;;;;24.93;42.16;69137.56;6365144;22;46647;-78
2023/05/25 15:04:31;;;;;;;;;4.00;4.00;;;;;25.14;42.65;69090.94;6366876;22;45722;-78
2023/05/25 15:07:00;;;;;;;;;4.33;3.33;;;;;25.11;42.65;69038.69;6365718;22;45477;-77
2023/05/25 15:09:25;;;;;;;;;2.00;2.00;;;;;25.08;43.08;68949.13;6366688;22;45774;-77
2023/05/25 15:11:51;;;;;;;;;2.00;2.00;;;;;25.06;43.11;68898.03;6365994;22;46224;-77
2023/05/25 15:14:16;;;;;;;;;2.00;2.00;;;;;25.04;42.97;68823.22;6338774;22;45400;-75
2023/05/25 15:16:42;;;;;;;;;2.00;2.00;;;;;25.02;43.21;68847.91;6366624;22;45480;-76
2023/05/25 15:19:08;;;;;;;;;2.00;2.00;;;;;24.86;42.84;68788.41;6367244;22;45351;-76
2023/05/25 15:21:33;;;;;;;;;2.00;2.00;;;;;24.99;43.25;68646.28;6366109;22;46282;-77
2023/05/25 15:23:59;;;;;;;;;1.00;1.00;;;;;24.97;43.37;68625.56;6367269;22;45356;-77
2023/05/25 15:26:25;;;;;;;;;2.67;1.00;;;;;24.91;43.22;68515.09;6367422;22;45533;-77
2023/05/25 15:28:50;;;;;;;;;1.00;1.00;;;;;24.93;43.37;68485.59;6366102;22;45741;-77
2023/05/25 15:31:15;;;;;;;;;1.67;1.67;;;;;24.90;43.48;68376.56;6365081;22;52837;-77
2023/05/25 15:33:41;;;;;;;;;3.67;2.00;;;;;24.79;43.87;68293.31;6367132;22;45406;-77
2023/05/25 15:36:07;;;;;;;;;2.00;2.00;;;;;24.82;43.95;68196.81;6365704;22;59408;-78
2023/05/25 15:38:32;;;;;;;;;3.00;3.00;;;;;24.84;43.88;68090.94;6366460;22;45500;-76
2023/05/25 15:40:58;;;;;;;;;2.00;2.00;;;;;24.83;43.94;68027.59;6365624;22;46495;-76
2023/05/25 15:43:23;;;;;;;;;2.00;2.00;;;;;24.74;44.55;67968.97;6363289;22;45507;-75
2023/05/25 15:45:49;;;;;;;;;1.33;1.33;;;;;24.58;44.18;67874.59;6365656;22;45378;-76
2023/05/25 15:48:14;;;;;;;;;3.00;3.00;;;;;24.68;44.40;67774.81;6366181;22;45558;-77
2023/05/25 15:50:40;;;;;;;;;2.33;1.33;;;;;24.68;44.79;67694.31;6362820;22;46126;-75
2023/05/25 15:53:05;;;;;;;;;3.33;2.00;;;;;24.34;44.38;67652.59;6365840;22;45691;-76
2023/05/25 15:55:31;;;;;;;;;3.00;3.00;;;;;24.72;44.91;67495.63;6337567;22;45429;-74
2023/05/25 15:57:56;;;;;;;;;2.00;2.00;;;;;24.18;44.61;67413.06;6366431;22;45378;-74
2023/05/25 16:00:22;;;;;;;;;2.33;2.33;;;;;24.66;45.00;67418.97;6365700;22;46188;-73
2023/05/25 16:02:47;;;;;;;;;2.00;2.00;;;;;24.64;45.01;67249.06;6365958;22;45301;-78
2023/05/25 16:05:12;;;;;;;;;2.00;2.00;;;;;24.59;45.08;67241.16;6366230;22;45299;-75
2023/05/25 16:07:38;;;;;;;;;2.33;2.33;;;;;24.56;44.99;67216.06;6367460;22;45631;-74
2023/05/25 16:10:04;;;;;;;;;3.00;3.00;;;;;24.47;45.02;67181.34;6366430;22;46730;-75
2023/05/25 16:12:29;;;;;;;;;1.00;1.00;;;;;24.33;44.87;67184.06;6365803;22;45382;-74
2023/05/25 16:14:55;;;;;;;;;2.00;2.00;;;;;24.39;45.40;67056.44;6365740;22;45293;-74
2023/05/25 16:17:20;;;;;;;;;3.33;3.00;;;;;24.42;44.85;67089.66;6366574;22;45370;-75
2023/05/25 16:19:45;;;;;;;;;2.33;2.33;;;;;24.43;44.97;67096.19;6366572;22;45240;-75
2023/05/25 16:22:11;;;;;;;;;2.00;2.00;;;;;24.38;45.43;67011.50;6366729;22;45734;-75
2023/05/25 16:24:36;;;;;;;;;2.00;2.00;;;;;24.28;45.04;66960.03;6366293;22;45671;-75
2023/05/25 16:27:01;;;;;;;;;3.33;2.33;;;;;24.34;45.61;66839.97;6366657;22;45358;-74
2023/05/25 16:29:27;;;;;;;;;3.33;3.33;;;;;24.23;45.12;66746.88;6365473;22;46140;-74
2023/05/25 16:31:54;;;;;;;;;3.00;3.00;;;;;24.16;45.46;66719.34;6366281;22;45329;-75
2023/05/25 16:34:19;;;;;;;;;3.00;3.00;;;;;24.17;45.59;66601.69;6366160;22;45523;-74
2023/05/25 16:36:45;;;;;;;;;2.00;2.00;;;;;24.12;45.55;66514.94;6366866;22;45324;-75